Time;durP1;ratioP1;P1;durP2;ratioP2;P2;SDS_P1;SDS_P2;PMS_P1;PMS_P2;Temp;Humidity;BMP_temperature;BMP_pressure;BME280_temperature;BME280_humidity;BME280_pressure;Samples;Min_cycle;Max_cycle;Signal;HPM_P1;HPM_P2
2023/09/09 00:02:22;;;;;;;;;24.60;22.00;;;;;18.69;61.22;99938.38;5096391;28;8915;-60
2023/09/09 00:04:49;;;;;;;;;21.40;19.40;;;;;18.65;61.18;99937.00;5095994;28;8849;-59
2023/09/09 00:07:17;;;;;;;;;22.80;22.00;;;;;18.65;61.31;99940.56;5096318;28;8850;-59
2023/09/09 00:09:44;;;;;;;;;24.00;22.80;;;;;18.62;61.59;99938.22;5095893;28;8839;-59
2023/09/09 00:12:12;;;;;;;;;24.50;23.00;;;;;18.60;61.16;99934.00;5096243;28;8845;-58
2023/09/09 00:14:40;;;;;;;;;31.75;28.50;;;;;18.58;61.84;99934.19;5096385;28;8838;-60
2023/09/09 00:17:07;;;;;;;;;36.25;34.50;;;;;18.57;61.17;99931.63;5095353;28;8856;-61
2023/09/09 00:19:35;;;;;;;;;44.00;39.50;;;;;18.56;61.28;99936.22;5095321;28;9788;-60
2023/09/09 00:22:03;;;;;;;;;48.25;43.50;;;;;18.54;61.81;99929.31;5095578;28;8848;-59
2023/09/09 00:24:31;;;;;;;;;66.00;52.25;;;;;18.53;61.81;99928.44;5095442;28;8834;-60
2023/09/09 00:27:00;;;;;;;;;60.25;52.00;;;;;18.52;61.38;99929.47;5096007;28;8960;-59
2023/09/09 00:29:29;;;;;;;;;59.50;48.75;;;;;18.53;62.15;99924.94;5096098;28;8955;-60
2023/09/09 00:31:56;;;;;;;;;50.75;46.00;;;;;18.51;62.00;99925.09;5095194;28;8836;-59
2023/09/09 00:34:24;;;;;;;;;46.00;41.75;;;;;18.48;61.47;99925.44;5095605;28;8845;-58
2023/09/09 00:36:52;;;;;;;;;33.75;30.25;;;;;18.45;62.05;99927.66;5095755;28;8849;-60
2023/09/09 00:39:20;;;;;;;;;26.50;24.50;;;;;18.41;61.84;99926.28;5095091;28;8826;-58
2023/09/09 00:41:48;;;;;;;;;27.75;27.00;;;;;18.38;62.30;99921.25;5095746;28;8826;-61
2023/09/09 00:44:15;;;;;;;;;30.75;28.50;;;;;18.36;61.88;99917.91;5095674;28;8863;-58
2023/09/09 00:46:43;;;;;;;;;42.25;37.00;;;;;18.32;62.00;99912.00;5094953;28;8898;-60
2023/09/09 00:49:12;;;;;;;;;36.75;34.00;;;;;18.32;61.96;99913.84;5094390;28;8862;-59
2023/09/09 00:51:39;;;;;;;;;49.25;44.75;;;;;18.33;61.88;99915.53;5095006;28;8849;-60
2023/09/09 00:54:07;;;;;;;;;67.50;55.25;;;;;18.35;62.04;99910.78;5095576;28;9525;-61
2023/09/09 00:56:34;;;;;;;;;72.75;56.50;;;;;18.36;62.07;99907.94;5095041;28;8822;-58
2023/09/09 00:59:02;;;;;;;;;80.25;62.00;;;;;18.37;61.88;99915.00;5095015;28;8822;-58
2023/09/09 01:01:31;;;;;;;;;68.25;55.50;;;;;18.39;62.17;99904.91;5094558;28;8825;-58
2023/09/09 01:03:58;;;;;;;;;45.25;42.00;;;;;18.39;61.71;99901.34;5094231;28;8907;-59
2023/09/09 01:06:27;;;;;;;;;29.00;24.25;;;;;18.35;62.26;99906.25;5094331;28;8836;-58
2023/09/09 01:08:54;;;;;;;;;42.25;39.00;;;;;18.31;61.77;99901.38;5094380;28;8822;-60
2023/09/09 01:11:22;;;;;;;;;32.00;30.50;;;;;18.27;61.85;99908.09;5094921;28;8968;-58
2023/09/09 01:13:49;;;;;;;;;29.25;28.75;;;;;18.21;62.25;99906.91;5094407;28;8818;-58
2023/09/09 01:16:17;;;;;;;;;28.00;26.00;;;;;18.16;62.40;99908.44;5094617;28;8842;-59
2023/09/09 01:18:45;;;;;;;;;24.00;22.75;;;;;18.11;62.36;99908.97;5094482;28;8825;-59
2023/09/09 01:21:12;;;;;;;;;29.00;26.50;;;;;18.06;62.59;99897.84;5094642;28;8822;-60
2023/09/09 01:23:40;;;;;;;;;35.25;27.50;;;;;18.01;63.03;99902.94;5094726;28;8830;-59
2023/09/09 01:26:08;;;;;;;;;41.25;38.50;;;;;17.98;63.18;99897.84;5094586;28;8822;-60
2023/09/09 01:28:36;;;;;;;;;47.50;42.75;;;;;17.93;62.27;99900.22;5094674;28;8830;-61
2023/09/09 01:31:04;;;;;;;;;52.50;47.50;;;;;17.92;63.19;99901.22;5094162;28;8875;-61
2023/09/09 01:33:32;;;;;;;;;48.50;43.00;;;;;17.90;63.12;99895.16;5094625;28;8860;-61
2023/09/09 01:35:59;;;;;;;;;58.50;49.25;;;;;17.89;63.09;99890.78;5094897;28;8830;-59
2023/09/09 01:38:27;;;;;;;;;73.00;56.00;;;;;17.91;62.62;99902.25;5095084;28;8914;-59
2023/09/09 01:40:54;;;;;;;;;64.75;52.75;;;;;17.91;62.67;99891.47;5094743;28;8846;-60
2023/09/09 01:43:22;;;;;;;;;54.00;48.25;;;;;17.92;62.80;99893.13;5094556;28;8821;-59
2023/09/09 01:45:50;;;;;;;;;61.75;49.75;;;;;17.94;63.01;99890.28;5094996;28;8864;-59
2023/09/09 01:48:17;;;;;;;;;56.75;48.50;;;;;17.95;62.53;99894.66;5094490;28;8874;-60
2023/09/09 01:50:47;;;;;;;;;72.25;56.75;;;;;17.94;62.65;99891.13;5095163;28;8960;-59
2023/09/09 01:53:14;;;;;;;;;64.00;53.50;;;;;17.95;62.48;99898.22;5095236;28;8836;-60
2023/09/09 01:55:42;;;;;;;;;56.00;48.50;;;;;17.93;62.66;99889.44;5094660;28;8825;-58
2023/09/09 01:58:10;;;;;;;;;53.00;45.50;;;;;17.92;62.64;99890.44;5094731;28;8842;-58
2023/09/09 02:00:37;;;;;;;;;60.75;47.50;;;;;17.89;62.77;99890.78;5094871;28;8822;-61
2023/09/09 02:03:05;;;;;;;;;68.25;55.00;;;;;17.89;62.53;99896.19;5094353;28;8840;-58
2023/09/09 02:05:34;;;;;;;;;62.75;49.00;;;;;17.87;62.77;99895.53;5094816;28;8834;-59
2023/09/09 02:08:02;;;;;;;;;54.50;47.75;;;;;17.87;62.98;99895.53;5094575;28;8842;-59
2023/09/09 02:10:29;;;;;;;;;41.00;36.25;;;;;17.83;62.73;99888.78;5094879;28;8825;-60
2023/09/09 02:12:57;;;;;;;;;40.25;38.00;;;;;17.78;62.55;99891.13;5094672;28;8826;-61
2023/09/09 02:15:26;;;;;;;;;40.25;37.25;;;;;17.71;63.04;99895.53;5094399;28;8829;-59
2023/09/09 02:17:53;;;;;;;;;45.25;40.50;;;;;17.66;62.85;99897.03;5094819;28;8822;-59
2023/09/09 02:20:21;;;;;;;;;53.75;49.00;;;;;17.60;63.81;99887.75;5094903;28;8834;-58
2023/09/09 02:22:48;;;;;;;;;52.00;42.25;;;;;17.56;63.67;99886.44;5094678;28;8834;-58
2023/09/09 02:25:16;;;;;;;;;53.00;47.00;;;;;17.54;63.51;99893.81;5094337;28;8834;-59
2023/09/09 02:27:44;;;;;;;;;56.25;47.25;;;;;17.53;63.37;99892.13;5094369;28;8825;-60
2023/09/09 02:30:11;;;;;;;;;65.00;54.25;;;;;17.53;63.64;99886.75;5094265;28;8830;-57
2023/09/09 02:32:39;;;;;;;;;81.75;62.50;;;;;17.52;63.42;99882.38;5094625;28;8822;-59
2023/09/09 02:35:08;;;;;;;;;59.00;49.50;;;;;17.52;63.90;99894.97;5094484;28;8814;-59
2023/09/09 02:37:36;;;;;;;;;42.75;39.00;;;;;17.50;63.51;99897.88;5094874;28;9507;-58
2023/09/09 02:40:05;;;;;;;;;42.00;37.00;;;;;17.47;63.29;99887.41;5094419;28;8818;-59
2023/09/09 02:42:32;;;;;;;;;39.50;38.75;;;;;17.45;63.31;99894.00;5098163;28;8848;-58
2023/09/09 02:45:00;;;;;;;;;36.25;34.50;;;;;17.41;64.12;99893.50;5098219;28;8849;-59
2023/09/09 02:47:28;;;;;;;;;34.00;33.50;;;;;17.37;63.75;99889.44;5098493;28;8842;-58
2023/09/09 02:49:55;;;;;;;;;29.75;27.50;;;;;17.35;63.62;99893.25;5097765;28;8830;-58
2023/09/09 02:52:23;;;;;;;;;33.00;30.75;;;;;17.32;63.29;99891.72;5097957;28;8911;-59
2023/09/09 02:54:51;;;;;;;;;31.00;28.75;;;;;17.31;63.67;99889.22;5097871;28;8814;-61
2023/09/09 02:57:19;;;;;;;;;27.50;25.75;;;;;17.29;63.75;99893.91;5098037;28;8821;-58
2023/09/09 02:59:47;;;;;;;;;22.00;20.00;;;;;17.26;64.30;99894.25;5097821;28;8830;-58
2023/09/09 03:02:14;;;;;;;;;31.00;27.50;;;;;17.21;64.13;99888.53;5097909;28;8906;-59
2023/09/09 03:04:42;;;;;;;;;27.00;23.50;;;;;17.18;64.28;99892.41;5097506;28;8867;-58
2023/09/09 03:07:09;;;;;;;;;30.75;29.00;;;;;17.16;63.90;99891.72;5097059;28;8834;-59
2023/09/09 03:09:37;;;;;;;;;30.50;27.75;;;;;17.16;64.24;99883.63;5097045;28;8911;-58
2023/09/09 03:12:05;;;;;;;;;28.75;24.50;;;;;17.17;63.87;99896.09;5097189;28;8814;-59
2023/09/09 03:14:33;;;;;;;;;32.75;30.50;;;;;17.16;64.01;99889.03;5096766;28;8822;-59
2023/09/09 03:17:01;;;;;;;;;33.00;31.00;;;;;17.15;64.37;99898.09;5097108;28;8858;-59
2023/09/09 03:19:29;;;;;;;;;43.00;37.50;;;;;17.15;64.11;99897.28;5097323;28;8834;-58
2023/09/09 03:21:57;;;;;;;;;41.75;38.00;;;;;17.15;63.74;99892.72;5096965;28;8837;-59
2023/09/09 03:24:25;;;;;;;;;53.50;45.00;;;;;17.15;64.07;99892.72;5097638;28;8810;-60
2023/09/09 03:26:52;;;;;;;;;39.75;39.25;;;;;17.16;63.74;99893.56;5097229;28;8853;-59
2023/09/09 03:29:20;;;;;;;;;35.50;33.75;;;;;17.14;64.39;99888.34;5097320;28;8818;-60
2023/09/09 03:31:48;;;;;;;;;49.00;43.25;;;;;17.16;63.93;99891.72;5097046;28;8857;-60
2023/09/09 03:34:15;;;;;;;;;40.00;39.75;;;;;17.16;64.15;99889.03;5096936;28;8806;-61
2023/09/09 03:36:43;;;;;;;;;50.75;44.50;;;;;17.15;64.38;99892.72;5097463;28;8814;-59
2023/09/09 03:39:10;;;;;;;;;48.75;44.50;;;;;17.13;64.38;99892.06;5097297;28;8905;-58
2023/09/09 03:41:38;;;;;;;;;46.00;39.25;;;;;17.13;63.96;99891.19;5097374;28;8814;-60
2023/09/09 03:44:06;;;;;;;;;47.25;45.25;;;;;17.11;64.53;99890.53;5097137;28;8873;-60
2023/09/09 03:46:34;;;;;;;;;52.00;44.50;;;;;17.07;64.63;99892.69;5096762;28;8869;-60
2023/09/09 03:49:02;;;;;;;;;54.25;46.50;;;;;17.04;64.61;99895.72;5096871;28;8848;-58
2023/09/09 03:51:29;;;;;;;;;56.25;48.50;;;;;17.05;64.57;99896.56;5096550;28;8846;-61
2023/09/09 03:53:57;;;;;;;;;47.50;43.75;;;;;17.06;64.02;99903.63;5095529;28;9499;-59
2023/09/09 03:56:25;;;;;;;;;38.50;36.50;;;;;17.05;64.57;99896.56;5096486;28;9784;-60
2023/09/09 03:58:52;;;;;;;;;32.00;31.25;;;;;17.05;64.13;99897.41;5096116;28;8818;-58
2023/09/09 04:01:20;;;;;;;;;34.00;30.00;;;;;17.04;64.16;99903.81;5095704;28;8848;-59
2023/09/09 04:03:48;;;;;;;;;38.75;34.75;;;;;17.03;64.48;99902.13;5096124;28;8829;-59
2023/09/09 04:06:17;;;;;;;;;28.75;26.25;;;;;17.03;64.07;99903.97;5096580;28;9538;-60
2023/09/09 04:08:45;;;;;;;;;38.75;33.00;;;;;17.03;64.05;99907.50;5095979;28;8902;-58
2023/09/09 04:11:13;;;;;;;;;30.50;29.50;;;;;17.00;64.09;99899.75;5096509;28;8826;-61
2023/09/09 04:13:40;;;;;;;;;31.50;31.00;;;;;16.97;64.45;99905.47;5096221;28;8830;-58
2023/09/09 04:16:09;;;;;;;;;37.75;34.25;;;;;16.93;64.72;99893.31;5095022;28;8850;-59
2023/09/09 04:18:37;;;;;;;;;32.50;29.50;;;;;16.90;64.98;99906.25;5095105;28;8850;-59
2023/09/09 04:21:13;;;;;;;;;32.00;29.00;;;;;16.85;64.96;99901.38;5095227;28;8836;-58
2023/09/09 04:23:41;;;;;;;;;36.00;33.00;;;;;16.84;64.80;99899.69;5095766;28;9491;-61
2023/09/09 04:26:08;;;;;;;;;29.00;27.75;;;;;16.81;64.69;99899.19;5095429;28;8907;-58
2023/09/09 04:28:36;;;;;;;;;21.25;20.75;;;;;16.79;64.74;99899.31;5095743;28;8873;-58
2023/09/09 04:31:04;;;;;;;;;21.50;21.50;;;;;16.76;65.08;99896.97;5095637;28;8973;-58
2023/09/09 04:33:32;;;;;;;;;21.00;18.00;;;;;16.74;64.92;99893.63;5096247;28;8818;-58
2023/09/09 04:35:59;;;;;;;;;20.00;19.00;;;;;16.69;65.08;99893.25;5096426;28;8952;-60
2023/09/09 04:38:27;;;;;;;;;19.50;18.50;;;;;16.66;65.27;99900.78;5096289;28;8936;-59
2023/09/09 04:40:55;;;;;;;;;18.00;17.50;;;;;16.63;65.55;99895.75;5095796;28;8960;-59
2023/09/09 04:43:22;;;;;;;;;21.25;18.50;;;;;16.60;65.25;99891.53;5095455;28;8830;-61
2023/09/09 04:45:50;;;;;;;;;16.75;16.75;;;;;16.58;65.68;99893.56;5095208;28;8865;-59
2023/09/09 04:48:17;;;;;;;;;12.25;5.00;;;;;16.57;65.57;99899.06;5095618;28;8836;-59
2023/09/09 04:50:45;;;;;;;;;18.75;18.00;;;;;16.57;65.43;99901.75;5095633;28;8818;-61
2023/09/09 04:53:13;;;;;;;;;24.00;19.00;;;;;16.55;64.98;99899.22;5095787;28;8830;-60
2023/09/09 04:55:40;;;;;;;;;19.00;18.00;;;;;16.58;65.25;99904.31;5095064;28;8839;-59
2023/09/09 04:58:10;;;;;;;;;23.00;19.75;;;;;16.59;65.46;99902.44;5095579;28;8838;-61
2023/09/09 05:00:38;;;;;;;;;20.50;17.50;;;;;16.58;65.44;99898.94;5095252;28;8814;-60
2023/09/09 05:03:05;;;;;;;;;21.50;20.75;;;;;16.59;65.28;99906.00;5095078;28;8836;-60
2023/09/09 05:05:33;;;;;;;;;20.00;18.50;;;;;16.62;64.95;99907.50;5094795;28;8818;-61
2023/09/09 05:08:02;;;;;;;;;18.50;17.00;;;;;16.64;64.85;99913.56;5095030;28;8836;-58
2023/09/09 05:10:32;;;;;;;;;22.00;20.25;;;;;16.63;65.24;99910.03;5095210;28;8825;-60
2023/09/09 05:13:00;;;;;;;;;22.25;21.50;;;;;16.66;65.07;99907.03;5094536;28;8851;-58
2023/09/09 05:15:28;;;;;;;;;21.50;21.50;;;;;16.69;64.81;99909.38;5094912;28;8921;-61
2023/09/09 05:17:56;;;;;;;;;24.50;22.25;;;;;16.72;65.13;99908.22;5094995;28;8853;-59
2023/09/09 05:20:23;;;;;;;;;16.00;16.00;;;;;16.76;64.59;99909.56;5095124;28;8826;-60
2023/09/09 05:22:51;;;;;;;;;19.00;19.00;;;;;16.76;65.08;99918.50;5094635;28;8830;-59
2023/09/09 05:25:19;;;;;;;;;19.00;17.50;;;;;16.78;64.88;99913.78;5094450;28;8951;-61
2023/09/09 05:27:47;;;;;;;;;19.25;17.00;;;;;16.77;64.61;99914.78;5094651;28;9522;-61
2023/09/09 05:30:14;;;;;;;;;21.50;18.00;;;;;16.77;65.09;99916.63;5094643;28;8945;-61
2023/09/09 05:32:42;;;;;;;;;19.00;16.00;;;;;16.77;64.87;99916.63;5094894;28;8838;-61
2023/09/09 05:35:10;;;;;;;;;21.00;18.50;;;;;16.78;65.10;99919.16;5094336;28;8833;-61
2023/09/09 05:37:37;;;;;;;;;20.00;18.25;;;;;16.81;65.05;99926.94;5094605;28;8862;-59
2023/09/09 05:40:05;;;;;;;;;19.50;17.00;;;;;16.86;64.92;99923.75;5094633;28;8826;-59
2023/09/09 05:42:32;;;;;;;;;21.75;18.75;;;;;16.91;64.50;99926.78;5094232;28;8840;-60
2023/09/09 05:45:00;;;;;;;;;20.25;18.50;;;;;16.99;65.01;99924.13;5095042;28;8903;-60
2023/09/09 05:47:28;;;;;;;;;21.75;19.50;;;;;17.05;63.89;99924.31;5095101;28;8849;-60
2023/09/09 05:49:55;;;;;;;;;19.00;18.00;;;;;17.11;64.30;99923.69;5094290;28;8845;-59
2023/09/09 05:52:23;;;;;;;;;18.75;18.00;;;;;17.17;64.22;99922.16;5094436;28;8822;-59
2023/09/09 05:54:50;;;;;;;;;19.25;17.00;;;;;17.24;64.19;99924.03;5094022;28;8830;-60
2023/09/09 05:57:18;;;;;;;;;26.00;21.25;;;;;17.30;63.86;99920.69;5093938;28;8810;-59
2023/09/09 05:59:46;;;;;;;;;18.00;17.50;;;;;17.36;63.62;99925.44;5094256;28;8833;-57
2023/09/09 06:02:13;;;;;;;;;20.00;18.50;;;;;17.41;64.13;99927.63;5093980;28;8830;-58
2023/09/09 06:04:41;;;;;;;;;10.00;10.00;;;;;17.45;64.03;99927.13;5093977;28;8837;-61
2023/09/09 06:07:09;;;;;;;;;21.50;18.00;;;;;17.52;63.71;99927.31;5093510;28;8837;-58
2023/09/09 06:09:36;;;;;;;;;16.00;15.00;;;;;17.61;63.73;99932.53;5093294;28;8825;-59
2023/09/09 06:12:04;;;;;;;;;22.50;19.50;;;;;17.70;62.99;99928.84;5092585;28;8853;-59
2023/09/09 06:14:32;;;;;;;;;24.50;21.50;;;;;17.80;62.44;99931.38;5093210;28;8838;-59
2023/09/09 06:17:00;;;;;;;;;22.25;19.00;;;;;17.89;62.88;99925.81;5096768;28;8845;-60
2023/09/09 06:19:27;;;;;;;;;22.00;19.00;;;;;17.99;62.47;99928.34;5097467;28;8810;-59
2023/09/09 06:21:55;;;;;;;;;19.00;18.00;;;;;18.08;62.10;99928.16;5097782;28;8838;-60
2023/09/09 06:24:22;;;;;;;;;17.80;15.80;;;;;18.18;62.59;99931.53;5097515;28;8857;-58
2023/09/09 06:26:50;;;;;;;;;17.80;15.80;;;;;18.29;62.14;99938.44;5098169;28;8865;-58
2023/09/09 06:29:18;;;;;;;;;22.25;21.00;;;;;18.40;61.53;99938.09;5098158;28;9479;-58
2023/09/09 06:31:45;;;;;;;;;20.50;19.00;;;;;18.56;62.10;99940.75;5098107;28;8903;-59
2023/09/09 06:34:14;;;;;;;;;24.75;24.75;;;;;18.68;61.37;99937.50;5097624;28;8822;-60
2023/09/09 06:36:41;;;;;;;;;23.00;20.25;;;;;18.79;61.60;99947.94;5097200;28;8857;-60
2023/09/09 06:39:09;;;;;;;;;27.20;23.20;;;;;18.94;60.92;99948.91;5097528;28;8854;-60
2023/09/09 06:41:36;;;;;;;;;24.40;23.60;;;;;19.08;60.78;99950.00;5097280;28;8907;-58
2023/09/09 06:44:04;;;;;;;;;27.50;25.75;;;;;19.23;60.55;99953.69;5097431;28;8830;-58
2023/09/09 06:46:32;;;;;;;;;25.80;23.80;;;;;19.34;60.94;99948.72;5097868;28;8846;-59
2023/09/09 06:48:59;;;;;;;;;25.40;20.20;;;;;19.47;60.29;99949.00;5096938;28;8834;-59
2023/09/09 06:51:28;;;;;;;;;29.00;26.40;;;;;19.57;60.20;99949.59;5097919;28;8859;-59
2023/09/09 06:53:56;;;;;;;;;21.80;19.60;;;;;19.68;60.26;99951.03;5096737;28;8841;-61
2023/09/09 06:56:24;;;;;;;;;26.00;23.60;;;;;19.79;60.30;99956.88;5096973;28;8857;-59
2023/09/09 06:58:52;;;;;;;;;24.80;22.60;;;;;19.92;59.76;99945.44;5096735;28;8845;-59
2023/09/09 07:01:19;;;;;;;;;25.60;24.00;;;;;20.03;59.56;99951.28;5097388;28;8845;-59
2023/09/09 07:03:47;;;;;;;;;28.60;25.00;;;;;20.15;59.56;99949.00;5097240;28;8814;-60
2023/09/09 07:06:15;;;;;;;;;23.80;22.80;;;;;20.26;59.17;99952.09;5097007;28;8837;-59
2023/09/09 07:08:43;;;;;;;;;23.80;23.40;;;;;20.35;59.46;99945.63;5097438;28;8826;-58
2023/09/09 07:11:11;;;;;;;;;24.40;20.40;;;;;20.47;59.33;99944.13;5096551;28;8822;-58
2023/09/09 07:13:39;;;;;;;;;19.40;18.40;;;;;20.57;58.92;99955.53;5096525;28;8818;-59
2023/09/09 07:16:07;;;;;;;;;22.00;19.20;;;;;20.68;58.54;99949.66;5096851;28;8853;-58
2023/09/09 07:18:34;;;;;;;;;16.00;13.00;;;;;20.78;58.18;99948.34;5096271;28;8830;-59
2023/09/09 07:21:02;;;;;;;;;20.20;18.20;;;;;20.91;58.03;99963.97;5096559;28;9558;-58
2023/09/09 07:23:30;;;;;;;;;17.60;17.40;;;;;21.02;58.03;99955.41;5096214;28;8818;-59
2023/09/09 07:25:58;;;;;;;;;17.00;16.80;;;;;21.14;58.28;99965.56;5095789;28;8960;-59
2023/09/09 07:28:25;;;;;;;;;18.60;17.00;;;;;21.26;58.01;99968.63;5093442;28;8848;-59
2023/09/09 07:30:53;;;;;;;;;17.00;15.60;;;;;21.38;57.96;99975.22;5095256;28;9869;-60
2023/09/09 07:33:21;;;;;;;;;17.00;16.20;;;;;21.49;57.40;99963.91;5095896;28;8834;-59
2023/09/09 07:35:52;;;;;;;;;12.80;12.40;;;;;21.59;57.34;99956.28;5095778;28;8810;-59
2023/09/09 07:38:20;;;;;;;;;19.80;18.20;;;;;21.70;57.28;99953.94;5095527;28;8833;-60
2023/09/09 07:40:48;;;;;;;;;14.60;14.60;;;;;21.82;56.90;99957.00;5095596;28;8834;-60
2023/09/09 07:43:18;;;;;;;;;16.00;15.80;;;;;21.94;57.32;99961.69;5094930;28;8826;-59
2023/09/09 07:45:46;;;;;;;;;20.00;18.60;;;;;22.07;57.12;99958.25;5095098;28;9515;-59
2023/09/09 07:48:14;;;;;;;;;16.60;15.60;;;;;22.19;56.91;99956.72;5095236;28;8968;-59
2023/09/09 07:50:42;;;;;;;;;22.60;20.40;;;;;22.29;56.49;99965.34;5095339;28;8861;-58
2023/09/09 07:53:10;;;;;;;;;20.20;18.20;;;;;22.39;56.90;99955.00;5095599;28;8837;-59
2023/09/09 07:55:37;;;;;;;;;17.20;14.20;;;;;22.52;56.32;99958.69;5095798;28;8818;-59
2023/09/09 07:58:05;;;;;;;;;15.80;15.80;;;;;22.62;56.22;99959.16;5095493;28;8906;-59
2023/09/09 08:00:33;;;;;;;;;18.20;16.60;;;;;22.74;55.53;99960.31;5094857;28;8834;-59
2023/09/09 08:03:02;;;;;;;;;22.40;20.60;;;;;22.86;55.79;99953.28;5095429;28;8856;-59
2023/09/09 08:05:30;;;;;;;;;20.20;19.00;;;;;22.98;55.79;99957.09;5095846;28;8837;-59
2023/09/09 08:07:58;;;;;;;;;17.40;16.60;;;;;23.10;55.63;99951.94;5094517;28;8960;-59
2023/09/09 08:10:26;;;;;;;;;15.60;15.60;;;;;23.24;55.32;99960.00;5094324;28;8857;-59
2023/09/09 08:12:54;;;;;;;;;16.40;16.00;;;;;23.39;55.17;99951.69;5094070;28;8857;-59
2023/09/09 08:15:22;;;;;;;;;16.60;16.60;;;;;23.52;55.06;99951.75;5094269;28;8858;-60
2023/09/09 08:18:06;;;;;;;;;16.60;16.40;;;;;23.66;54.58;99957.00;5094359;28;8887;-60
2023/09/09 08:20:34;;;;;;;;;21.60;18.20;;;;;23.76;54.57;99959.34;5094206;28;8833;-59
2023/09/09 08:23:02;;;;;;;;;19.40;18.20;;;;;23.86;54.21;99959.78;5094192;28;8840;-60
2023/09/09 08:25:32;;;;;;;;;16.00;15.80;;;;;23.96;54.53;99961.06;5095125;28;8837;-59
2023/09/09 08:28:01;;;;;;;;;17.80;16.20;;;;;24.06;54.13;99958.78;5093942;28;8837;-58
2023/09/09 08:30:29;;;;;;;;;16.80;16.40;;;;;24.18;53.74;99959.84;5092849;28;9381;-60
2023/09/09 08:32:56;;;;;;;;;17.00;14.20;;;;;24.31;53.76;99961.72;5093585;28;8838;-60
2023/09/09 08:35:24;;;;;;;;;19.60;18.00;;;;;24.44;53.48;99959.00;5092982;28;8939;-59
2023/09/09 08:37:52;;;;;;;;;16.40;16.20;;;;;24.57;53.99;99959.03;5092873;28;8972;-60
2023/09/09 08:40:20;;;;;;;;;15.00;14.60;;;;;24.71;53.78;99966.97;5092219;28;9508;-60
2023/09/09 08:42:48;;;;;;;;;14.20;14.00;;;;;24.85;53.75;99968.63;5093004;28;8838;-60
2023/09/09 08:45:16;;;;;;;;;17.00;16.60;;;;;25.00;53.22;99962.94;5093058;28;8844;-61
2023/09/09 08:47:43;;;;;;;;;15.60;15.20;;;;;25.13;53.21;99968.34;5092834;28;8927;-59
2023/09/09 08:50:11;;;;;;;;;18.60;16.20;;;;;25.26;52.72;99968.34;5092947;28;8830;-60
2023/09/09 08:52:39;;;;;;;;;11.00;10.80;;;;;25.40;52.70;99967.25;5093151;28;8857;-61
2023/09/09 08:55:07;;;;;;;;;15.60;15.00;;;;;25.55;52.11;99965.06;5093672;28;8910;-60
2023/09/09 08:57:35;;;;;;;;;18.80;18.60;;;;;25.68;52.50;99963.97;5093584;28;9535;-59
2023/09/09 09:00:03;;;;;;;;;17.00;15.60;;;;;25.81;51.87;99961.13;5093510;28;8856;-60
2023/09/09 09:02:31;;;;;;;;;15.80;15.80;;;;;25.97;51.78;99962.56;5093724;28;8818;-60
2023/09/09 09:04:59;;;;;;;;;19.00;19.00;;;;;26.10;52.20;99960.56;5093101;28;8830;-59
2023/09/09 09:07:28;;;;;;;;;18.80;17.60;;;;;26.24;51.34;99951.22;5092940;28;8853;-60
2023/09/09 09:09:56;;;;;;;;;18.40;17.00;;;;;26.37;51.66;99961.19;5092820;28;8834;-59
2023/09/09 09:12:24;;;;;;;;;20.20;18.60;;;;;26.48;51.23;99960.47;5093058;28;9527;-60
2023/09/09 09:14:51;;;;;;;;;22.20;19.60;;;;;26.62;51.50;99962.03;5093226;28;8830;-59
2023/09/09 09:17:20;;;;;;;;;21.60;20.80;;;;;26.75;51.29;99967.38;5092890;28;8834;-59
2023/09/09 09:19:49;;;;;;;;;18.80;17.00;;;;;26.92;51.38;99961.13;5093049;28;8864;-60
2023/09/09 09:22:17;;;;;;;;;16.80;16.60;;;;;27.22;50.77;99964.81;5092776;28;8972;-59
2023/09/09 09:24:45;;;;;;;;;21.20;20.00;;;;;27.52;50.31;99959.38;5092973;28;8977;-60
2023/09/09 09:27:13;;;;;;;;;20.20;19.20;;;;;27.71;49.62;99959.09;5092891;28;8818;-59
2023/09/09 09:29:40;;;;;;;;;18.60;16.80;;;;;27.86;50.00;99965.03;5092797;28;8849;-61
2023/09/09 09:32:08;;;;;;;;;14.60;14.60;;;;;27.98;49.51;99962.34;5092477;28;8866;-60
2023/09/09 09:34:36;;;;;;;;;12.40;12.40;;;;;28.08;49.87;99957.13;5093325;28;8838;-60
2023/09/09 09:37:05;;;;;;;;;18.40;14.80;;;;;28.13;49.89;99958.09;5092763;28;8850;-59
2023/09/09 09:39:33;;;;;;;;;19.60;17.00;;;;;28.19;49.63;99961.81;5092967;28;9585;-60
2023/09/09 09:42:00;;;;;;;;;18.00;16.60;;;;;28.21;49.63;99957.75;5093214;28;9636;-58
2023/09/09 09:44:28;;;;;;;;;17.80;17.00;;;;;28.25;49.62;99963.59;5093266;28;8944;-59
2023/09/09 09:46:56;;;;;;;;;18.60;17.80;;;;;28.29;49.77;99953.88;5093404;28;8842;-60
2023/09/09 09:49:24;;;;;;;;;18.80;18.80;;;;;28.40;49.73;99955.81;5092986;28;8838;-61
2023/09/09 09:51:52;;;;;;;;;15.20;13.80;;;;;28.67;49.54;99955.09;5092257;28;8826;-60
2023/09/09 09:54:20;;;;;;;;;17.80;15.40;;;;;29.14;48.66;99958.69;5092314;28;8912;-62
2023/09/09 09:56:48;;;;;;;;;16.80;16.00;;;;;29.82;47.30;99954.09;5092671;28;8830;-59
2023/09/09 09:59:15;;;;;;;;;17.00;16.60;;;;;30.69;45.94;99953.50;5092140;28;8953;-59
2023/09/09 10:01:44;;;;;;;;;17.00;16.00;;;;;31.52;45.01;99949.47;5093756;28;8829;-59
2023/09/09 10:04:12;;;;;;;;;18.40;16.00;;;;;32.39;43.51;99946.28;5092864;28;8849;-60
2023/09/09 10:06:41;;;;;;;;;18.20;17.80;;;;;33.24;42.39;99949.72;5093485;28;8830;-60
2023/09/09 10:09:08;;;;;;;;;16.00;15.40;;;;;33.99;41.65;99946.41;5092295;28;8846;-59
2023/09/09 10:11:36;;;;;;;;;17.00;17.00;;;;;34.61;40.48;99941.47;5092993;28;8825;-60
2023/09/09 10:14:04;;;;;;;;;16.80;16.00;;;;;35.15;40.30;99946.13;5093163;28;8857;-60
2023/09/09 10:16:32;;;;;;;;;18.20;18.00;;;;;35.62;39.41;99948.47;5093198;28;8842;-60
2023/09/09 10:19:00;;;;;;;;;18.00;17.60;;;;;36.05;39.43;99941.00;5092488;28;9811;-60
2023/09/09 10:21:28;;;;;;;;;15.40;14.00;;;;;36.56;38.88;99941.50;5092329;28;8915;-60
2023/09/09 10:24:08;;;;;;;;;13.60;12.80;;;;;36.89;38.45;99941.50;5091935;28;8829;-59
2023/09/09 10:26:36;;;;;;;;;17.60;16.80;;;;;36.91;38.71;99943.94;5092496;28;9616;-60
2023/09/09 10:29:04;;;;;;;;;19.60;17.20;;;;;36.71;39.31;99936.66;5092037;28;8830;-60
2023/09/09 10:31:31;;;;;;;;;17.00;16.60;;;;;36.61;39.40;99942.31;5092220;28;8818;-61
2023/09/09 10:33:59;;;;;;;;;15.20;15.00;;;;;36.49;39.50;99936.25;5092244;28;8829;-60
2023/09/09 10:36:27;;;;;;;;;16.60;16.00;;;;;36.12;40.40;99933.19;5093398;28;8860;-60
2023/09/09 10:38:55;;;;;;;;;17.60;15.80;;;;;35.74;41.11;99930.41;5092785;28;8841;-60
2023/09/09 10:41:22;;;;;;;;;17.00;16.00;;;;;35.46;41.51;99933.00;5092336;28;9487;-60
2023/09/09 10:43:50;;;;;;;;;15.00;14.40;;;;;35.15;41.50;99929.50;5091833;28;8859;-60
2023/09/09 10:46:18;;;;;;;;;16.80;16.00;;;;;35.03;42.38;99934.50;5092047;28;8846;-59
2023/09/09 10:48:46;;;;;;;;;19.20;18.40;;;;;35.08;41.94;99930.91;5091790;28;8869;-60
2023/09/09 10:51:15;;;;;;;;;16.20;15.20;;;;;35.06;42.16;99928.44;5092257;28;8988;-59
2023/09/09 10:53:43;;;;;;;;;12.40;12.40;;;;;35.05;41.39;99931.47;5092441;28;8841;-60
2023/09/09 10:56:11;;;;;;;;;16.00;15.20;;;;;35.11;41.59;99925.63;5092632;28;8817;-61
2023/09/09 10:58:39;;;;;;;;;14.20;13.00;;;;;35.10;42.14;99928.69;5092659;28;8956;-59
2023/09/09 11:01:07;;;;;;;;;12.00;11.80;;;;;34.91;41.86;99928.47;5093700;28;8858;-61
2023/09/09 11:03:35;;;;;;;;;11.40;11.00;;;;;34.71;42.59;99931.22;5096327;28;8853;-60
2023/09/09 11:06:06;;;;;;;;;14.80;14.80;;;;;34.74;42.28;99927.13;5097153;28;8848;-60
2023/09/09 11:08:38;;;;;;;;;9.60;8.00;;;;;34.87;41.89;99934.84;5096540;28;8899;-59
2023/09/09 11:11:06;;;;;;;;;14.80;13.80;;;;;34.95;42.32;99939.81;5095466;28;8845;-57
2023/09/09 11:13:34;;;;;;;;;15.00;15.00;;;;;35.26;41.65;99930.34;5096029;28;8845;-58
2023/09/09 11:16:02;;;;;;;;;15.20;13.20;;;;;35.72;40.71;99929.03;5095533;28;9643;-57
2023/09/09 11:18:30;;;;;;;;;14.80;12.60;;;;;36.37;39.55;99929.44;5095315;28;8841;-57
2023/09/09 11:20:58;;;;;;;;;12.60;12.40;;;;;36.67;39.03;99926.41;5095133;28;8838;-57
2023/09/09 11:23:26;;;;;;;;;14.00;13.40;;;;;36.87;39.56;99924.25;5095817;28;9630;-57
2023/09/09 11:25:54;;;;;;;;;13.00;12.20;;;;;37.11;38.75;99927.91;5095058;28;8953;-57
2023/09/09 11:28:22;;;;;;;;;16.00;15.00;;;;;37.42;38.13;99926.44;5094528;28;8845;-57